sensor_id;sensor_type;location;lat;lon;timestamp;P1;durP1;ratioP1;P2;durP2;ratioP2
29466;SDS011;60968;37.490;-122.288;2023-02-28T00:02:22;16.60;;;2.20;;
29466;SDS011;60968;37.490;-122.288;2023-02-28T00:05:23;10.03;;;1.67;;
29466;SDS011;60968;37.490;-122.288;2023-02-28T00:08:25;12.03;;;2.27;;
29466;SDS011;60968;37.490;-122.288;2023-02-28T00:11:26;18.17;;;2.20;;
29466;SDS011;60968;37.490;-122.288;2023-02-28T00:14:29;16.07;;;2.70;;
29466;SDS011;60968;37.490;-122.288;2023-02-28T00:17:30;9.27;;;2.00;;
29466;SDS011;60968;37.490;-122.288;2023-02-28T00:20:31;17.23;;;3.40;;
29466;SDS011;60968;37.490;-122.288;2023-02-28T00:23:32;14.97;;;2.77;;
29466;SDS011;60968;37.490;-122.288;2023-02-28T00:26:33;26.80;;;2.90;;
29466;SDS011;60968;37.490;-122.288;2023-02-28T00:29:34;22.33;;;3.17;;
29466;SDS011;60968;37.490;-122.288;2023-02-28T00:32:35;17.07;;;2.60;;
29466;SDS011;60968;37.490;-122.288;2023-02-28T00:35:36;12.93;;;2.20;;
29466;SDS011;60968;37.490;-122.288;2023-02-28T00:38:37;15.87;;;2.13;;
29466;SDS011;60968;37.490;-122.288;2023-02-28T00:41:40;11.30;;;2.37;;
29466;SDS011;60968;37.490;-122.288;2023-02-28T00:44:44;17.83;;;2.10;;
29466;SDS011;60968;37.490;-122.288;2023-02-28T00:47:45;16.63;;;2.10;;
29466;SDS011;60968;37.490;-122.288;2023-02-28T00:50:48;18.60;;;2.63;;
29466;SDS011;60968;37.490;-122.288;2023-02-28T00:53:49;5.20;;;1.80;;
29466;SDS011;60968;37.490;-122.288;2023-02-28T00:56:50;12.13;;;1.67;;
29466;SDS011;60968;37.490;-122.288;2023-02-28T00:59:53;12.47;;;1.33;;
29466;SDS011;60968;37.490;-122.288;2023-02-28T01:02:57;14.90;;;1.90;;
29466;SDS011;60968;37.490;-122.288;2023-02-28T01:05:58;12.07;;;2.10;;
29466;SDS011;60968;37.490;-122.288;2023-02-28T01:08:59;13.20;;;1.90;;
29466;SDS011;60968;37.490;-122.288;2023-02-28T01:12:00;14.50;;;2.27;;
29466;SDS011;60968;37.490;-122.288;2023-02-28T01:15:04;13.57;;;2.67;;
29466;SDS011;60968;37.490;-122.288;2023-02-28T01:18:07;17.17;;;2.47;;
29466;SDS011;60968;37.490;-122.288;2023-02-28T01:21:09;22.57;;;2.73;;
29466;SDS011;60968;37.490;-122.288;2023-02-28T01:24:12;18.97;;;2.27;;
29466;SDS011;60968;37.490;-122.288;2023-02-28T01:27:13;21.23;;;3.03;;
29466;SDS011;60968;37.490;-122.288;2023-02-28T01:30:14;25.43;;;3.47;;
29466;SDS011;60968;37.490;-122.288;2023-02-28T01:33:15;14.53;;;2.57;;
29466;SDS011;60968;37.490;-122.288;2023-02-28T01:36:18;22.30;;;2.33;;
29466;SDS011;60968;37.490;-122.288;2023-02-28T01:39:20;15.60;;;2.60;;
29466;SDS011;60968;37.490;-122.288;2023-02-28T01:42:21;16.57;;;2.90;;
29466;SDS011;60968;37.490;-122.288;2023-02-28T01:45:29;15.03;;;2.33;;
29466;SDS011;60968;37.490;-122.288;2023-02-28T01:48:32;21.57;;;2.97;;
29466;SDS011;60968;37.490;-122.288;2023-02-28T01:51:49;15.10;;;2.63;;
29466;SDS011;60968;37.490;-122.288;2023-02-28T01:54:55;24.90;;;3.00;;
29466;SDS011;60968;37.490;-122.288;2023-02-28T01:58:05;18.30;;;2.90;;
29466;SDS011;60968;37.490;-122.288;2023-02-28T02:01:13;20.90;;;3.10;;
29466;SDS011;60968;37.490;-122.288;2023-02-28T02:04:14;11.77;;;2.43;;
29466;SDS011;60968;37.490;-122.288;2023-02-28T02:07:15;23.30;;;3.03;;
29466;SDS011;60968;37.490;-122.288;2023-02-28T02:10:18;19.67;;;2.70;;
29466;SDS011;60968;37.490;-122.288;2023-02-28T02:16:49;13.47;;;2.13;;
29466;SDS011;60968;37.490;-122.288;2023-02-28T02:27:58;19.00;;;3.10;;
29466;SDS011;60968;37.490;-122.288;2023-02-28T02:31:26;17.33;;;2.20;;
29466;SDS011;60968;37.490;-122.288;2023-02-28T02:41:25;15.57;;;2.80;;
29466;SDS011;60968;37.490;-122.288;2023-02-28T02:44:27;14.53;;;2.17;;
29466;SDS011;60968;37.490;-122.288;2023-02-28T02:47:37;16.10;;;2.30;;
29466;SDS011;60968;37.490;-122.288;2023-02-28T02:50:54;13.50;;;2.43;;
29466;SDS011;60968;37.490;-122.288;2023-02-28T02:54:20;18.97;;;2.30;;
29466;SDS011;60968;37.490;-122.288;2023-02-28T02:57:44;16.10;;;2.30;;
29466;SDS011;60968;37.490;-122.288;2023-02-28T03:00:59;13.27;;;2.03;;
29466;SDS011;60968;37.490;-122.288;2023-02-28T03:04:12;11.03;;;1.90;;
29466;SDS011;60968;37.490;-122.288;2023-02-28T03:07:17;17.40;;;2.13;;
29466;SDS011;60968;37.490;-122.288;2023-02-28T03:13:45;9.40;;;2.70;;
29466;SDS011;60968;37.490;-122.288;2023-02-28T03:20:16;11.57;;;1.83;;
29466;SDS011;60968;37.490;-122.288;2023-02-28T03:23:42;10.97;;;1.50;;
29466;SDS011;60968;37.490;-122.288;2023-02-28T03:33:47;11.10;;;1.70;;
29466;SDS011;60968;37.490;-122.288;2023-02-28T03:36:57;21.17;;;2.67;;
29466;SDS011;60968;37.490;-122.288;2023-02-28T03:40:06;11.57;;;1.70;;
29466;SDS011;60968;37.490;-122.288;2023-02-28T03:43:14;15.30;;;2.13;;
29466;SDS011;60968;37.490;-122.288;2023-02-28T03:46:21;11.07;;;1.70;;
29466;SDS011;60968;37.490;-122.288;2023-02-28T03:49:27;14.70;;;2.17;;
29466;SDS011;60968;37.490;-122.288;2023-02-28T03:52:35;17.67;;;2.20;;
29466;SDS011;60968;37.490;-122.288;2023-02-28T03:55:46;18.67;;;1.60;;
29466;SDS011;60968;37.490;-122.288;2023-02-28T03:59:00;13.93;;;1.80;;
29466;SDS011;60968;37.490;-122.288;2023-02-28T04:02:13;17.97;;;2.50;;
29466;SDS011;60968;37.490;-122.288;2023-02-28T04:05:14;14.43;;;2.80;;
29466;SDS011;60968;37.490;-122.288;2023-02-28T04:08:15;15.23;;;2.30;;
29466;SDS011;60968;37.490;-122.288;2023-02-28T04:14:37;16.77;;;2.40;;
29466;SDS011;60968;37.490;-122.288;2023-02-28T04:17:40;10.50;;;1.57;;
29466;SDS011;60968;37.490;-122.288;2023-02-28T04:20:41;12.00;;;1.93;;
29466;SDS011;60968;37.490;-122.288;2023-02-28T04:23:42;12.40;;;2.00;;
29466;SDS011;60968;37.490;-122.288;2023-02-28T04:26:44;14.93;;;1.90;;
29466;SDS011;60968;37.490;-122.288;2023-02-28T04:29:49;9.47;;;1.57;;
29466;SDS011;60968;37.490;-122.288;2023-02-28T04:32:50;6.00;;;1.60;;
29466;SDS011;60968;37.490;-122.288;2023-02-28T04:35:58;16.47;;;2.53;;
29466;SDS011;60968;37.490;-122.288;2023-02-28T04:39:00;15.57;;;2.03;;
29466;SDS011;60968;37.490;-122.288;2023-02-28T04:42:02;12.63;;;1.60;;
29466;SDS011;60968;37.490;-122.288;2023-02-28T04:45:03;19.13;;;1.70;;
29466;SDS011;60968;37.490;-122.288;2023-02-28T04:48:05;12.13;;;2.10;;
29466;SDS011;60968;37.490;-122.288;2023-02-28T04:51:09;17.90;;;2.57;;
29466;SDS011;60968;37.490;-122.288;2023-02-28T04:54:12;15.53;;;2.23;;
29466;SDS011;60968;37.490;-122.288;2023-02-28T04:57:13;23.27;;;2.90;;
29466;SDS011;60968;37.490;-122.288;2023-02-28T05:00:17;22.30;;;3.33;;
29466;SDS011;60968;37.490;-122.288;2023-02-28T05:03:19;27.63;;;3.50;;
29466;SDS011;60968;37.490;-122.288;2023-02-28T05:06:20;16.73;;;2.03;;
29466;SDS011;60968;37.490;-122.288;2023-02-28T05:09:22;19.10;;;2.33;;
29466;SDS011;60968;37.490;-122.288;2023-02-28T05:12:23;19.30;;;2.03;;
29466;SDS011;60968;37.490;-122.288;2023-02-28T05:15:24;14.90;;;2.63;;
29466;SDS011;60968;37.490;-122.288;2023-02-28T05:18:25;12.27;;;1.60;;
29466;SDS011;60968;37.490;-122.288;2023-02-28T05:21:33;17.70;;;2.63;;
29466;SDS011;60968;37.490;-122.288;2023-02-28T05:24:37;18.87;;;3.20;;
29466;SDS011;60968;37.490;-122.288;2023-02-28T05:27:38;15.27;;;2.07;;
29466;SDS011;60968;37.490;-122.288;2023-02-28T05:30:40;16.87;;;2.10;;
29466;SDS011;60968;37.490;-122.288;2023-02-28T05:33:40;22.83;;;3.13;;
29466;SDS011;60968;37.490;-122.288;2023-02-28T05:36:44;17.60;;;2.20;;
29466;SDS011;60968;37.490;-122.288;2023-02-28T05:39:45;13.50;;;2.40;;
29466;SDS011;60968;37.490;-122.288;2023-02-28T05:42:55;9.07;;;2.17;;
29466;SDS011;60968;37.490;-122.288;2023-02-28T05:45:56;10.50;;;2.17;;
29466;SDS011;60968;37.490;-122.288;2023-02-28T05:49:00;15.00;;;2.13;;
29466;SDS011;60968;37.490;-122.288;2023-02-28T05:52:01;15.27;;;1.97;;
29466;SDS011;60968;37.490;-122.288;2023-02-28T05:55:05;18.27;;;1.83;;
29466;SDS011;60968;37.490;-122.288;2023-02-28T05:58:09;13.80;;;2.10;;
29466;SDS011;60968;37.490;-122.288;2023-02-28T06:01:23;22.03;;;2.93;;
29466;SDS011;60968;37.490;-122.288;2023-02-28T06:04:38;17.93;;;1.90;;
29466;SDS011;60968;37.490;-122.288;2023-02-28T06:07:39;15.03;;;1.80;;
29466;SDS011;60968;37.490;-122.288;2023-02-28T06:10:40;10.70;;;1.50;;
29466;SDS011;60968;37.490;-122.288;2023-02-28T06:13:41;10.40;;;1.63;;
29466;SDS011;60968;37.490;-122.288;2023-02-28T06:16:42;8.07;;;1.70;;
29466;SDS011;60968;37.490;-122.288;2023-02-28T06:19:43;12.07;;;1.83;;
29466;SDS011;60968;37.490;-122.288;2023-02-28T06:22:44;7.87;;;1.53;;
29466;SDS011;60968;37.490;-122.288;2023-02-28T06:25:45;14.30;;;2.00;;
29466;SDS011;60968;37.490;-122.288;2023-02-28T06:28:47;19.87;;;2.37;;
29466;SDS011;60968;37.490;-122.288;2023-02-28T06:31:49;17.13;;;2.10;;
29466;SDS011;60968;37.490;-122.288;2023-02-28T06:34:51;13.93;;;1.73;;
29466;SDS011;60968;37.490;-122.288;2023-02-28T06:37:52;12.07;;;1.60;;
29466;SDS011;60968;37.490;-122.288;2023-02-28T06:40:54;16.10;;;1.80;;
29466;SDS011;60968;37.490;-122.288;2023-02-28T06:43:56;19.00;;;1.90;;
29466;SDS011;60968;37.490;-122.288;2023-02-28T06:46:57;16.47;;;1.70;;
29466;SDS011;60968;37.490;-122.288;2023-02-28T06:49:58;22.00;;;2.23;;
29466;SDS011;60968;37.490;-122.288;2023-02-28T06:52:59;14.37;;;2.17;;
29466;SDS011;60968;37.490;-122.288;2023-02-28T06:56:03;10.80;;;1.67;;
29466;SDS011;60968;37.490;-122.288;2023-02-28T06:59:08;15.13;;;2.73;;
29466;SDS011;60968;37.490;-122.288;2023-02-28T07:02:11;15.23;;;2.47;;
29466;SDS011;60968;37.490;-122.288;2023-02-28T07:05:11;21.47;;;2.93;;
29466;SDS011;60968;37.490;-122.288;2023-02-28T07:08:13;11.83;;;2.30;;
29466;SDS011;60968;37.490;-122.288;2023-02-28T07:11:15;22.27;;;2.50;;
29466;SDS011;60968;37.490;-122.288;2023-02-28T07:14:17;12.83;;;1.97;;
29466;SDS011;60968;37.490;-122.288;2023-02-28T07:17:18;19.70;;;2.10;;
29466;SDS011;60968;37.490;-122.288;2023-02-28T07:20:19;15.27;;;1.87;;
29466;SDS011;60968;37.490;-122.288;2023-02-28T07:23:20;15.27;;;1.60;;
29466;SDS011;60968;37.490;-122.288;2023-02-28T07:26:21;14.67;;;1.77;;
29466;SDS011;60968;37.490;-122.288;2023-02-28T07:29:22;14.30;;;2.33;;
29466;SDS011;60968;37.490;-122.288;2023-02-28T07:32:23;23.87;;;2.43;;
29466;SDS011;60968;37.490;-122.288;2023-02-28T07:35:24;15.83;;;1.97;;
29466;SDS011;60968;37.490;-122.288;2023-02-28T07:38:25;18.90;;;2.37;;
29466;SDS011;60968;37.490;-122.288;2023-02-28T07:41:25;15.63;;;2.53;;
29466;SDS011;60968;37.490;-122.288;2023-02-28T07:44:26;16.10;;;2.70;;
29466;SDS011;60968;37.490;-122.288;2023-02-28T07:47:30;16.67;;;2.33;;
29466;SDS011;60968;37.490;-122.288;2023-02-28T07:50:31;20.47;;;2.87;;
29466;SDS011;60968;37.490;-122.288;2023-02-28T07:53:33;17.47;;;2.50;;
29466;SDS011;60968;37.490;-122.288;2023-02-28T07:56:33;28.80;;;2.67;;
29466;SDS011;60968;37.490;-122.288;2023-02-28T07:59:35;19.23;;;2.23;;
29466;SDS011;60968;37.490;-122.288;2023-02-28T08:02:36;23.90;;;2.37;;
29466;SDS011;60968;37.490;-122.288;2023-02-28T08:05:39;24.23;;;3.27;;
29466;SDS011;60968;37.490;-122.288;2023-02-28T08:08:40;20.50;;;2.63;;
29466;SDS011;60968;37.490;-122.288;2023-02-28T08:11:41;21.70;;;2.33;;
29466;SDS011;60968;37.490;-122.288;2023-02-28T08:14:42;23.90;;;3.43;;
29466;SDS011;60968;37.490;-122.288;2023-02-28T08:17:44;14.80;;;2.10;;
29466;SDS011;60968;37.490;-122.288;2023-02-28T08:20:45;18.60;;;2.90;;
29466;SDS011;60968;37.490;-122.288;2023-02-28T08:23:49;18.27;;;1.90;;
29466;SDS011;60968;37.490;-122.288;2023-02-28T08:26:51;15.97;;;2.27;;
29466;SDS011;60968;37.490;-122.288;2023-02-28T08:29:52;15.00;;;2.20;;
29466;SDS011;60968;37.490;-122.288;2023-02-28T08:32:52;15.23;;;2.37;;
29466;SDS011;60968;37.490;-122.288;2023-02-28T08:35:54;15.57;;;2.50;;
29466;SDS011;60968;37.490;-122.288;2023-02-28T08:38:56;19.30;;;2.33;;
29466;SDS011;60968;37.490;-122.288;2023-02-28T08:41:58;15.13;;;1.97;;
29466;SDS011;60968;37.490;-122.288;2023-02-28T08:45:00;17.43;;;2.23;;
29466;SDS011;60968;37.490;-122.288;2023-02-28T08:48:01;19.37;;;2.17;;
29466;SDS011;60968;37.490;-122.288;2023-02-28T08:51:03;13.50;;;2.27;;
29466;SDS011;60968;37.490;-122.288;2023-02-28T08:54:06;16.57;;;1.97;;
29466;SDS011;60968;37.490;-122.288;2023-02-28T08:57:08;11.13;;;1.40;;
29466;SDS011;60968;37.490;-122.288;2023-02-28T09:00:09;21.03;;;2.13;;
29466;SDS011;60968;37.490;-122.288;2023-02-28T09:03:10;17.43;;;2.33;;
29466;SDS011;60968;37.490;-122.288;2023-02-28T09:06:11;15.10;;;1.67;;
29466;SDS011;60968;37.490;-122.288;2023-02-28T09:09:12;16.27;;;2.00;;
29466;SDS011;60968;37.490;-122.288;2023-02-28T09:12:14;14.77;;;1.63;;
29466;SDS011;60968;37.490;-122.288;2023-02-28T09:15:14;18.27;;;2.30;;
29466;SDS011;60968;37.490;-122.288;2023-02-28T09:18:15;14.33;;;1.90;;
29466;SDS011;60968;37.490;-122.288;2023-02-28T09:21:17;10.03;;;2.27;;
29466;SDS011;60968;37.490;-122.288;2023-02-28T09:24:19;10.77;;;1.90;;
29466;SDS011;60968;37.490;-122.288;2023-02-28T09:27:20;17.03;;;2.80;;
29466;SDS011;60968;37.490;-122.288;2023-02-28T09:30:21;13.73;;;2.30;;
29466;SDS011;60968;37.490;-122.288;2023-02-28T09:33:22;14.67;;;1.70;;
29466;SDS011;60968;37.490;-122.288;2023-02-28T09:36:24;10.33;;;1.47;;
29466;SDS011;60968;37.490;-122.288;2023-02-28T09:39:26;13.40;;;1.27;;
29466;SDS011;60968;37.490;-122.288;2023-02-28T09:42:31;12.57;;;1.60;;
29466;SDS011;60968;37.490;-122.288;2023-02-28T09:45:35;9.57;;;1.60;;
29466;SDS011;60968;37.490;-122.288;2023-02-28T09:48:41;10.47;;;1.30;;
29466;SDS011;60968;37.490;-122.288;2023-02-28T09:59:04;6.93;;;1.17;;
29466;SDS011;60968;37.490;-122.288;2023-02-28T10:02:04;12.23;;;1.37;;
29466;SDS011;60968;37.490;-122.288;2023-02-28T10:05:24;13.27;;;1.40;;
29466;SDS011;60968;37.490;-122.288;2023-02-28T10:08:38;12.87;;;1.60;;
29466;SDS011;60968;37.490;-122.288;2023-02-28T10:11:52;18.87;;;1.77;;
29466;SDS011;60968;37.490;-122.288;2023-02-28T10:14:56;5.63;;;1.30;;
29466;SDS011;60968;37.490;-122.288;2023-02-28T10:18:02;5.43;;;1.17;;
29466;SDS011;60968;37.490;-122.288;2023-02-28T10:21:05;10.73;;;1.43;;
29466;SDS011;60968;37.490;-122.288;2023-02-28T10:24:35;14.47;;;1.40;;
29466;SDS011;60968;37.490;-122.288;2023-02-28T10:28:19;11.63;;;1.70;;
29466;SDS011;60968;37.490;-122.288;2023-02-28T10:31:19;10.00;;;1.70;;
29466;SDS011;60968;37.490;-122.288;2023-02-28T10:34:20;18.03;;;2.10;;
29466;SDS011;60968;37.490;-122.288;2023-02-28T10:37:22;12.87;;;1.67;;
29466;SDS011;60968;37.490;-122.288;2023-02-28T10:43:24;11.23;;;2.07;;
29466;SDS011;60968;37.490;-122.288;2023-02-28T10:46:33;12.03;;;1.37;;
29466;SDS011;60968;37.490;-122.288;2023-02-28T10:49:34;18.60;;;1.80;;
29466;SDS011;60968;37.490;-122.288;2023-02-28T10:52:37;14.87;;;2.07;;
29466;SDS011;60968;37.490;-122.288;2023-02-28T10:55:41;12.23;;;1.33;;
29466;SDS011;60968;37.490;-122.288;2023-02-28T10:59:01;14.27;;;2.33;;
29466;SDS011;60968;37.490;-122.288;2023-02-28T11:02:30;12.20;;;1.70;;
29466;SDS011;60968;37.490;-122.288;2023-02-28T11:05:35;8.93;;;1.30;;
29466;SDS011;60968;37.490;-122.288;2023-02-28T11:08:43;14.93;;;2.07;;
29466;SDS011;60968;37.490;-122.288;2023-02-28T11:11:57;8.67;;;1.67;;
29466;SDS011;60968;37.490;-122.288;2023-02-28T11:15:02;9.73;;;1.77;;
29466;SDS011;60968;37.490;-122.288;2023-02-28T11:21:36;7.83;;;1.50;;
29466;SDS011;60968;37.490;-122.288;2023-02-28T11:24:40;15.73;;;1.63;;
29466;SDS011;60968;37.490;-122.288;2023-02-28T11:27:51;19.83;;;2.27;;
29466;SDS011;60968;37.490;-122.288;2023-02-28T11:31:04;7.87;;;2.00;;
29466;SDS011;60968;37.490;-122.288;2023-02-28T11:34:24;13.70;;;1.87;;
29466;SDS011;60968;37.490;-122.288;2023-02-28T11:37:27;11.07;;;2.33;;
29466;SDS011;60968;37.490;-122.288;2023-02-28T11:40:33;14.70;;;2.37;;
29466;SDS011;60968;37.490;-122.288;2023-02-28T11:43:53;9.93;;;1.80;;
29466;SDS011;60968;37.490;-122.288;2023-02-28T11:47:01;17.20;;;2.27;;
29466;SDS011;60968;37.490;-122.288;2023-02-28T11:50:26;12.97;;;2.00;;
29466;SDS011;60968;37.490;-122.288;2023-02-28T11:57:16;10.80;;;1.60;;
29466;SDS011;60968;37.490;-122.288;2023-02-28T12:03:58;7.80;;;1.40;;
29466;SDS011;60968;37.490;-122.288;2023-02-28T12:07:25;11.13;;;1.70;;
29466;SDS011;60968;37.490;-122.288;2023-02-28T12:10:59;18.23;;;2.10;;
29466;SDS011;60968;37.490;-122.288;2023-02-28T12:27:56;11.70;;;1.73;;
29466;SDS011;60968;37.490;-122.288;2023-02-28T12:31:00;16.10;;;2.07;;
29466;SDS011;60968;37.490;-122.288;2023-02-28T12:34:21;12.23;;;1.20;;
29466;SDS011;60968;37.490;-122.288;2023-02-28T12:37:37;6.00;;;1.60;;
29466;SDS011;60968;37.490;-122.288;2023-02-28T12:40:44;10.17;;;1.37;;
29466;SDS011;60968;37.490;-122.288;2023-02-28T12:43:57;11.83;;;1.43;;
29466;SDS011;60968;37.490;-122.288;2023-02-28T12:47:04;9.70;;;1.83;;
29466;SDS011;60968;37.490;-122.288;2023-02-28T12:50:12;15.70;;;1.80;;
29466;SDS011;60968;37.490;-122.288;2023-02-28T13:00:12;12.10;;;1.43;;
29466;SDS011;60968;37.490;-122.288;2023-02-28T13:09:56;11.97;;;1.47;;
29466;SDS011;60968;37.490;-122.288;2023-02-28T13:13:01;14.00;;;1.80;;
29466;SDS011;60968;37.490;-122.288;2023-02-28T13:16:09;11.20;;;1.43;;
29466;SDS011;60968;37.490;-122.288;2023-02-28T13:19:11;12.80;;;1.70;;
29466;SDS011;60968;37.490;-122.288;2023-02-28T13:25:49;13.17;;;1.80;;
29466;SDS011;60968;37.490;-122.288;2023-02-28T13:38:46;6.63;;;1.40;;
29466;SDS011;60968;37.490;-122.288;2023-02-28T13:41:47;9.17;;;1.80;;
29466;SDS011;60968;37.490;-122.288;2023-02-28T13:45:51;15.20;;;1.70;;
29466;SDS011;60968;37.490;-122.288;2023-02-28T13:48:22;14.57;;;1.93;;
29466;SDS011;60968;37.490;-122.288;2023-02-28T13:52:12;15.43;;;1.70;;
29466;SDS011;60968;37.490;-122.288;2023-02-28T14:08:22;13.07;;;1.40;;
29466;SDS011;60968;37.490;-122.288;2023-02-28T14:17:39;10.33;;;1.70;;
29466;SDS011;60968;37.490;-122.288;2023-02-28T14:20:41;15.50;;;1.77;;
29466;SDS011;60968;37.490;-122.288;2023-02-28T14:23:47;13.80;;;1.80;;
29466;SDS011;60968;37.490;-122.288;2023-02-28T14:37:47;18.60;;;1.80;;
29466;SDS011;60968;37.490;-122.288;2023-02-28T14:40:49;13.07;;;1.70;;
29466;SDS011;60968;37.490;-122.288;2023-02-28T14:43:54;11.30;;;1.37;;
29466;SDS011;60968;37.490;-122.288;2023-02-28T14:46:57;16.93;;;2.10;;
29466;SDS011;60968;37.490;-122.288;2023-02-28T14:50:01;11.70;;;2.00;;
29466;SDS011;60968;37.490;-122.288;2023-02-28T14:53:04;17.10;;;1.70;;
29466;SDS011;60968;37.490;-122.288;2023-02-28T14:56:34;17.43;;;2.10;;
29466;SDS011;60968;37.490;-122.288;2023-02-28T14:59:37;16.97;;;2.00;;
29466;SDS011;60968;37.490;-122.288;2023-02-28T15:02:38;17.93;;;1.73;;
29466;SDS011;60968;37.490;-122.288;2023-02-28T15:05:40;17.13;;;1.87;;
29466;SDS011;60968;37.490;-122.288;2023-02-28T15:08:41;16.57;;;2.07;;
29466;SDS011;60968;37.490;-122.288;2023-02-28T15:11:45;18.37;;;2.30;;
29466;SDS011;60968;37.490;-122.288;2023-02-28T15:14:47;6.77;;;1.50;;
29466;SDS011;60968;37.490;-122.288;2023-02-28T15:17:52;12.87;;;2.00;;
29466;SDS011;60968;37.490;-122.288;2023-02-28T15:21:02;9.27;;;1.40;;
29466;SDS011;60968;37.490;-122.288;2023-02-28T15:27:32;8.97;;;2.57;;
29466;SDS011;60968;37.490;-122.288;2023-02-28T15:30:36;12.97;;;1.67;;
29466;SDS011;60968;37.490;-122.288;2023-02-28T15:33:56;7.83;;;1.67;;
29466;SDS011;60968;37.490;-122.288;2023-02-28T15:37:06;11.60;;;1.60;;
29466;SDS011;60968;37.490;-122.288;2023-02-28T15:40:28;15.80;;;1.90;;
29466;SDS011;60968;37.490;-122.288;2023-02-28T15:43:32;14.40;;;1.40;;
29466;SDS011;60968;37.490;-122.288;2023-02-28T15:46:35;9.40;;;1.43;;
29466;SDS011;60968;37.490;-122.288;2023-02-28T15:50:18;6.57;;;1.10;;
29466;SDS011;60968;37.490;-122.288;2023-02-28T15:53:12;8.83;;;1.33;;
29466;SDS011;60968;37.490;-122.288;2023-02-28T15:56:26;8.03;;;1.20;;
29466;SDS011;60968;37.490;-122.288;2023-02-28T15:59:29;3.87;;;0.80;;
29466;SDS011;60968;37.490;-122.288;2023-02-28T16:02:32;9.00;;;1.40;;
29466;SDS011;60968;37.490;-122.288;2023-02-28T16:05:35;8.83;;;1.20;;
29466;SDS011;60968;37.490;-122.288;2023-02-28T16:08:35;6.80;;;1.40;;
29466;SDS011;60968;37.490;-122.288;2023-02-28T16:11:39;8.13;;;1.00;;
29466;SDS011;60968;37.490;-122.288;2023-02-28T16:14:45;12.03;;;1.87;;
29466;SDS011;60968;37.490;-122.288;2023-02-28T16:17:48;9.33;;;1.43;;
29466;SDS011;60968;37.490;-122.288;2023-02-28T16:20:49;6.37;;;1.33;;
29466;SDS011;60968;37.490;-122.288;2023-02-28T16:23:50;8.40;;;1.30;;
29466;SDS011;60968;37.490;-122.288;2023-02-28T16:26:51;8.00;;;1.90;;
29466;SDS011;60968;37.490;-122.288;2023-02-28T16:30:00;5.03;;;1.00;;
29466;SDS011;60968;37.490;-122.288;2023-02-28T16:33:21;6.50;;;1.40;;
29466;SDS011;60968;37.490;-122.288;2023-02-28T16:36:48;10.87;;;1.37;;
29466;SDS011;60968;37.490;-122.288;2023-02-28T16:40:42;9.83;;;1.77;;
29466;SDS011;60968;37.490;-122.288;2023-02-28T16:43:39;7.43;;;1.20;;
29466;SDS011;60968;37.490;-122.288;2023-02-28T16:46:40;6.27;;;1.80;;
29466;SDS011;60968;37.490;-122.288;2023-02-28T16:49:41;4.60;;;1.50;;
29466;SDS011;60968;37.490;-122.288;2023-02-28T16:52:42;5.00;;;0.87;;
29466;SDS011;60968;37.490;-122.288;2023-02-28T16:55:43;11.60;;;1.80;;
29466;SDS011;60968;37.490;-122.288;2023-02-28T16:58:44;4.87;;;0.90;;
29466;SDS011;60968;37.490;-122.288;2023-02-28T17:01:46;4.90;;;0.87;;
29466;SDS011;60968;37.490;-122.288;2023-02-28T17:04:47;7.97;;;1.17;;
29466;SDS011;60968;37.490;-122.288;2023-02-28T17:07:48;3.23;;;0.67;;
29466;SDS011;60968;37.490;-122.288;2023-02-28T17:10:49;3.47;;;0.70;;
29466;SDS011;60968;37.490;-122.288;2023-02-28T17:13:50;3.27;;;0.67;;
29466;SDS011;60968;37.490;-122.288;2023-02-28T17:16:52;5.90;;;0.90;;
29466;SDS011;60968;37.490;-122.288;2023-02-28T17:19:53;4.90;;;0.73;;
29466;SDS011;60968;37.490;-122.288;2023-02-28T17:22:54;4.13;;;0.63;;
29466;SDS011;60968;37.490;-122.288;2023-02-28T17:25:55;2.20;;;0.70;;
29466;SDS011;60968;37.490;-122.288;2023-02-28T17:28:56;11.40;;;0.97;;
29466;SDS011;60968;37.490;-122.288;2023-02-28T17:31:58;1.63;;;0.40;;
29466;SDS011;60968;37.490;-122.288;2023-02-28T17:34:58;4.30;;;0.77;;
29466;SDS011;60968;37.490;-122.288;2023-02-28T17:37:59;1.57;;;0.40;;
29466;SDS011;60968;37.490;-122.288;2023-02-28T17:41:00;2.50;;;0.63;;
29466;SDS011;60968;37.490;-122.288;2023-02-28T17:44:01;2.40;;;0.40;;
29466;SDS011;60968;37.490;-122.288;2023-02-28T17:47:02;1.00;;;0.20;;
29466;SDS011;60968;37.490;-122.288;2023-02-28T17:50:03;2.37;;;0.57;;
29466;SDS011;60968;37.490;-122.288;2023-02-28T17:53:04;6.03;;;0.77;;
29466;SDS011;60968;37.490;-122.288;2023-02-28T17:56:08;3.03;;;0.83;;
29466;SDS011;60968;37.490;-122.288;2023-02-28T17:59:28;5.73;;;1.00;;
29466;SDS011;60968;37.490;-122.288;2023-02-28T18:02:29;9.63;;;1.10;;
29466;SDS011;60968;37.490;-122.288;2023-02-28T18:05:31;12.07;;;1.70;;
29466;SDS011;60968;37.490;-122.288;2023-02-28T18:08:32;17.37;;;2.07;;
29466;SDS011;60968;37.490;-122.288;2023-02-28T18:11:35;16.40;;;2.90;;
29466;SDS011;60968;37.490;-122.288;2023-02-28T18:14:36;15.60;;;1.87;;
29466;SDS011;60968;37.490;-122.288;2023-02-28T18:17:37;8.07;;;1.30;;
29466;SDS011;60968;37.490;-122.288;2023-02-28T18:20:38;3.23;;;0.73;;
29466;SDS011;60968;37.490;-122.288;2023-02-28T18:23:39;8.73;;;1.10;;
29466;SDS011;60968;37.490;-122.288;2023-02-28T18:26:40;6.40;;;1.10;;
29466;SDS011;60968;37.490;-122.288;2023-02-28T18:29:41;5.10;;;0.70;;
29466;SDS011;60968;37.490;-122.288;2023-02-28T18:32:42;5.83;;;0.70;;
29466;SDS011;60968;37.490;-122.288;2023-02-28T18:35:43;8.07;;;0.73;;
29466;SDS011;60968;37.490;-122.288;2023-02-28T18:38:44;8.20;;;0.90;;
29466;SDS011;60968;37.490;-122.288;2023-02-28T18:41:45;3.30;;;0.33;;
29466;SDS011;60968;37.490;-122.288;2023-02-28T18:44:46;5.20;;;0.97;;
29466;SDS011;60968;37.490;-122.288;2023-02-28T18:47:47;2.93;;;0.77;;
29466;SDS011;60968;37.490;-122.288;2023-02-28T18:50:51;3.03;;;0.70;;
29466;SDS011;60968;37.490;-122.288;2023-02-28T18:53:52;5.50;;;0.77;;
29466;SDS011;60968;37.490;-122.288;2023-02-28T18:56:53;7.90;;;1.10;;
29466;SDS011;60968;37.490;-122.288;2023-02-28T18:59:53;8.50;;;1.10;;
29466;SDS011;60968;37.490;-122.288;2023-02-28T19:02:54;6.77;;;0.80;;
29466;SDS011;60968;37.490;-122.288;2023-02-28T19:05:56;5.53;;;0.83;;
29466;SDS011;60968;37.490;-122.288;2023-02-28T19:08:59;3.03;;;0.77;;
29466;SDS011;60968;37.490;-122.288;2023-02-28T19:12:01;7.80;;;1.00;;
29466;SDS011;60968;37.490;-122.288;2023-02-28T19:15:03;5.33;;;0.80;;
29466;SDS011;60968;37.490;-122.288;2023-02-28T19:18:05;7.40;;;0.90;;
29466;SDS011;60968;37.490;-122.288;2023-02-28T19:21:10;7.80;;;1.50;;
29466;SDS011;60968;37.490;-122.288;2023-02-28T19:24:12;3.87;;;1.27;;
29466;SDS011;60968;37.490;-122.288;2023-02-28T19:27:13;7.10;;;1.10;;
29466;SDS011;60968;37.490;-122.288;2023-02-28T19:30:14;7.70;;;1.10;;
29466;SDS011;60968;37.490;-122.288;2023-02-28T19:33:15;14.23;;;1.33;;
29466;SDS011;60968;37.490;-122.288;2023-02-28T19:36:16;12.87;;;2.03;;
29466;SDS011;60968;37.490;-122.288;2023-02-28T19:39:17;12.07;;;1.50;;
29466;SDS011;60968;37.490;-122.288;2023-02-28T19:42:17;18.77;;;2.47;;
29466;SDS011;60968;37.490;-122.288;2023-02-28T19:45:18;9.63;;;1.00;;
29466;SDS011;60968;37.490;-122.288;2023-02-28T19:48:19;11.53;;;1.57;;